createdAt,value
2023-03-18T00:02:28.807Z,70.00
2023-03-18T00:04:55.709Z,69.60
2023-03-18T00:07:22.616Z,69.30
2023-03-18T00:09:50.584Z,69.70
2023-03-18T00:12:17.552Z,69.20
2023-03-18T00:14:44.746Z,70.60
2023-03-18T00:17:11.866Z,70.50
2023-03-18T00:19:40.113Z,70.20
2023-03-18T00:22:08.298Z,71.10
2023-03-18T00:24:35.157Z,71.00
2023-03-18T00:27:04.270Z,71.00
2023-03-18T00:29:31.387Z,71.00
2023-03-18T00:31:58.874Z,70.80
2023-03-18T00:34:26.202Z,71.00
2023-03-18T00:36:57.198Z,70.90
2023-03-18T00:39:28.831Z,71.20
2023-03-18T00:41:58.913Z,71.20
2023-03-18T00:44:26.381Z,71.20
2023-03-18T00:46:53.404Z,71.20
2023-03-18T00:49:20.590Z,71.40
2023-03-18T00:51:47.608Z,71.40
2023-03-18T00:54:18.729Z,71.40
2023-03-18T00:56:45.971Z,71.40
2023-03-18T00:59:13.328Z,71.50
2023-03-18T01:01:40.599Z,71.10
2023-03-18T01:04:07.543Z,71.00
2023-03-18T01:06:37.617Z,71.60
2023-03-18T01:09:06.897Z,71.60
2023-03-18T01:11:38.362Z,71.70
2023-03-18T01:14:05.688Z,71.50
2023-03-18T01:16:32.724Z,71.80
2023-03-18T01:19:01.376Z,71.80
2023-03-18T01:21:28.274Z,71.90
2023-03-18T01:23:55.167Z,71.60
2023-03-18T01:26:23.326Z,71.60
2023-03-18T01:28:51.704Z,72.10
2023-03-18T01:31:19.176Z,72.10
2023-03-18T01:37:55.615Z,72.30
2023-03-18T01:40:22.653Z,72.30
2023-03-18T01:42:55.725Z,72.20
2023-03-18T01:45:28.573Z,72.50
2023-03-18T01:47:57.268Z,72.30
2023-03-18T01:50:31.476Z,72.40
2023-03-18T01:53:17.857Z,72.70
2023-03-18T01:55:46.185Z,72.20
2023-03-18T01:58:23.140Z,71.90
2023-03-18T02:00:56.279Z,72.20
2023-03-18T02:03:23.214Z,72.50
2023-03-18T02:05:50.819Z,71.60
2023-03-18T02:08:18.208Z,72.30
2023-03-18T02:10:45.967Z,73.00
2023-03-18T02:13:14.710Z,72.50
2023-03-18T02:15:48.018Z,72.50
2023-03-18T02:18:19.932Z,73.30
2023-03-18T02:21:09.481Z,73.10
2023-03-18T02:23:56.264Z,73.00
2023-03-18T02:26:29.840Z,73.30
2023-03-18T02:29:04.569Z,73.20
2023-03-18T02:31:32.383Z,73.40
2023-03-18T02:34:00.160Z,73.60
2023-03-18T02:36:30.062Z,73.00
2023-03-18T02:39:00.725Z,73.00
2023-03-18T02:41:32.532Z,72.60
2023-03-18T02:44:01.353Z,72.70
2023-03-18T02:46:34.255Z,73.50
2023-03-18T02:56:45.497Z,73.80
2023-03-18T02:59:14.342Z,73.40
2023-03-18T03:01:44.755Z,73.60
2023-03-18T03:04:12.315Z,74.10
2023-03-18T03:06:48.993Z,74.10
2023-03-18T03:09:17.276Z,74.20
2023-03-18T03:11:46.206Z,74.30
2023-03-18T03:14:16.399Z,74.30
2023-03-18T03:16:43.819Z,73.90
2023-03-18T03:19:11.534Z,74.60
2023-03-18T03:21:39.041Z,74.70
2023-03-18T03:24:08.192Z,74.50
2023-03-18T03:26:35.983Z,74.90
2023-03-18T03:29:04.638Z,74.30
2023-03-18T03:31:33.454Z,74.30
2023-03-18T03:34:00.771Z,74.30
2023-03-18T03:36:27.817Z,74.40
2023-03-18T03:38:55.494Z,74.40
2023-03-18T03:41:22.455Z,74.90
2023-03-18T03:43:49.715Z,75.30
2023-03-18T03:46:16.823Z,74.80
2023-03-18T03:48:47.248Z,74.50
2023-03-18T03:59:54.381Z,74.90
2023-03-18T04:02:23.761Z,75.30
2023-03-18T04:04:52.697Z,75.00
2023-03-18T04:07:22.757Z,75.80
2023-03-18T04:09:50.710Z,75.10
2023-03-18T04:12:21.088Z,75.60
2023-03-18T04:14:50.765Z,75.70
2023-03-18T04:17:18.539Z,75.20
2023-03-18T04:19:45.526Z,75.50
2023-03-18T04:22:13.751Z,75.90
2023-03-18T04:24:40.845Z,75.40
2023-03-18T04:27:07.801Z,76.10
2023-03-18T04:29:34.873Z,76.10
2023-03-18T04:32:01.953Z,76.00
2023-03-18T04:34:28.952Z,76.90
2023-03-18T04:36:56.176Z,76.60
2023-03-18T04:39:25.567Z,77.40
2023-03-18T04:41:53.315Z,77.20
2023-03-18T04:44:20.962Z,77.20
2023-03-18T04:46:48.003Z,77.60
2023-03-18T04:49:14.935Z,78.30
2023-03-18T04:51:55.139Z,77.90
2023-03-18T04:54:22.541Z,77.50
2023-03-18T04:56:51.074Z,78.10
2023-03-18T04:59:19.168Z,77.80
2023-03-18T05:01:46.422Z,77.90
2023-03-18T05:04:13.453Z,77.70
2023-03-18T05:06:41.394Z,78.30
2023-03-18T05:09:08.813Z,78.30
2023-03-18T05:11:36.456Z,77.70
2023-03-18T05:14:05.061Z,78.20
2023-03-18T05:16:32.212Z,78.20
2023-03-18T05:18:59.329Z,78.30
2023-03-18T05:21:26.317Z,78.10
2023-03-18T05:23:53.572Z,78.10
2023-03-18T05:26:20.485Z,78.10
2023-03-18T05:28:47.781Z,78.00
2023-03-18T05:31:18.997Z,78.20
2023-03-18T05:33:49.415Z,77.80
2023-03-18T05:36:17.777Z,78.20
2023-03-18T05:38:44.684Z,77.40
2023-03-18T05:41:12.112Z,77.40
2023-03-18T05:43:39.303Z,78.30
2023-03-18T05:46:06.711Z,78.50
2023-03-18T05:48:35.267Z,78.00
2023-03-18T05:51:02.721Z,78.40
2023-03-18T05:53:29.699Z,78.60
2023-03-18T05:55:57.817Z,78.70
2023-03-18T05:58:24.969Z,78.50
2023-03-18T06:00:53.160Z,78.60
2023-03-18T06:03:20.111Z,78.10
2023-03-18T06:05:49.392Z,78.70
2023-03-18T06:08:20.124Z,78.80
2023-03-18T06:10:54.758Z,78.70
2023-03-18T06:13:22.537Z,78.70
2023-03-18T06:15:49.666Z,78.60
2023-03-18T06:18:17.127Z,78.30
2023-03-18T06:20:43.974Z,78.40
2023-03-18T06:23:12.416Z,77.60
2023-03-18T06:25:40.508Z,78.20
2023-03-18T06:28:07.517Z,78.10
2023-03-18T06:30:34.631Z,78.00
2023-03-18T06:33:01.708Z,78.50
2023-03-18T06:35:28.896Z,78.30
2023-03-18T06:37:55.852Z,78.50
2023-03-18T06:40:24.730Z,78.50
2023-03-18T06:42:51.950Z,79.20
2023-03-18T06:45:19.015Z,78.90
2023-03-18T06:47:48.139Z,79.00
2023-03-18T06:50:15.630Z,78.40
2023-03-18T06:52:43.619Z,79.00
2023-03-18T06:55:10.891Z,79.10
2023-03-18T06:57:42.017Z,79.20
2023-03-18T07:00:10.440Z,79.10
2023-03-18T07:02:39.543Z,78.50
2023-03-18T07:05:08.052Z,78.70
2023-03-18T07:07:37.687Z,78.30
2023-03-18T07:10:06.764Z,78.40
2023-03-18T07:12:34.324Z,79.30
2023-03-18T07:15:03.098Z,79.10
2023-03-18T07:17:30.883Z,79.60
2023-03-18T07:19:58.173Z,79.60
2023-03-18T07:22:25.114Z,79.60
2023-03-18T07:24:52.439Z,79.20
2023-03-18T07:27:23.481Z,79.20
2023-03-18T07:29:52.633Z,79.10
2023-03-18T07:32:21.043Z,78.50
2023-03-18T07:34:50.887Z,78.70
2023-03-18T07:37:19.089Z,79.50
2023-03-18T07:39:47.225Z,79.60
2023-03-18T07:42:17.371Z,79.30
2023-03-18T07:44:44.550Z,79.60
2023-03-18T07:47:17.637Z,78.80
2023-03-18T07:49:46.126Z,78.60
2023-03-18T07:52:13.956Z,78.50
2023-03-18T07:54:41.654Z,78.10
2023-03-18T07:57:08.659Z,77.90
2023-03-18T07:59:36.601Z,77.60
2023-03-18T08:02:04.923Z,78.10
2023-03-18T08:04:32.350Z,78.10
2023-03-18T08:07:01.291Z,77.90
2023-03-18T08:09:28.142Z,77.80
2023-03-18T08:11:55.557Z,77.90
2023-03-18T08:14:31.596Z,77.80
2023-03-18T08:17:00.752Z,77.40
2023-03-18T08:19:28.246Z,77.20
2023-03-18T08:21:55.752Z,77.00
2023-03-18T08:24:24.696Z,76.80
2023-03-18T08:26:51.761Z,76.50
2023-03-18T08:29:19.140Z,76.70
2023-03-18T08:31:46.490Z,76.20
2023-03-18T08:34:14.055Z,76.00
2023-03-18T08:36:42.723Z,76.20
2023-03-18T08:39:10.022Z,76.30
2023-03-18T08:41:40.961Z,76.40
2023-03-18T08:44:11.429Z,76.90
2023-03-18T08:46:38.797Z,76.90
2023-03-18T08:49:27.623Z,76.70
2023-03-18T08:51:54.800Z,75.80
2023-03-18T08:54:48.073Z,75.40
2023-03-18T08:57:16.440Z,75.90
2023-03-18T08:59:48.370Z,75.60
2023-03-18T09:02:16.892Z,75.40
2023-03-18T09:04:44.608Z,75.20
2023-03-18T09:07:13.267Z,74.90
2023-03-18T09:09:43.892Z,74.20
2023-03-18T09:12:12.568Z,73.90
2023-03-18T09:14:42.656Z,74.20
2023-03-18T09:17:10.413Z,74.00
2023-03-18T09:19:37.451Z,73.30
2023-03-18T09:22:04.705Z,72.60
2023-03-18T09:24:31.674Z,72.50
2023-03-18T09:26:59.889Z,71.90
2023-03-18T09:29:27.875Z,71.90
2023-03-18T09:31:56.231Z,70.40
2023-03-18T09:34:23.338Z,71.00
2023-03-18T09:36:51.625Z,71.80
2023-03-18T09:39:19.301Z,71.20
2023-03-18T09:42:00.391Z,71.30
2023-03-18T09:44:31.898Z,70.80
2023-03-18T09:47:13.587Z,71.10
2023-03-18T09:49:59.601Z,71.60
2023-03-18T09:52:38.011Z,70.50
2023-03-18T09:55:12.635Z,69.10
2023-03-18T09:57:46.115Z,69.50
2023-03-18T10:00:20.984Z,68.80
2023-03-18T10:03:06.389Z,68.00
2023-03-18T10:05:40.617Z,67.80
2023-03-18T10:08:22.319Z,68.50
2023-03-18T10:10:49.610Z,68.40
2023-03-18T10:13:34.738Z,67.60
2023-03-18T10:16:04.951Z,67.30
2023-03-18T10:18:49.999Z,65.90
2023-03-18T10:21:25.864Z,65.20
2023-03-18T10:24:09.597Z,62.40
2023-03-18T10:26:43.530Z,63.70
2023-03-18T10:29:27.540Z,64.30
2023-03-18T10:32:01.095Z,65.30
2023-03-18T10:34:42.006Z,65.20
2023-03-18T10:37:19.009Z,67.10
2023-03-18T10:39:56.527Z,67.20
2023-03-18T10:42:26.911Z,67.80
2023-03-18T10:45:08.569Z,67.50
2023-03-18T10:47:40.871Z,68.20
2023-03-18T10:50:22.090Z,68.10
2023-03-18T10:52:55.896Z,67.30
2023-03-18T10:55:38.105Z,68.10
2023-03-18T10:58:15.483Z,68.10
2023-03-18T11:00:51.376Z,68.30
2023-03-18T11:03:26.255Z,68.30
2023-03-18T11:05:59.402Z,68.30
2023-03-18T11:08:35.396Z,68.20
2023-03-18T11:11:27.666Z,68.60
2023-03-18T11:13:56.949Z,68.60
2023-03-18T11:16:38.041Z,68.30
2023-03-18T11:19:32.117Z,68.70
2023-03-18T11:22:19.099Z,68.50
2023-03-18T11:24:46.555Z,68.60
2023-03-18T11:27:37.526Z,68.80
2023-03-18T11:30:21.466Z,69.10
2023-03-18T11:32:58.668Z,69.00
2023-03-18T11:35:35.151Z,69.10
2023-03-18T11:38:04.817Z,69.20
2023-03-18T11:40:32.741Z,69.20
2023-03-18T11:43:01.942Z,69.00
2023-03-18T11:45:42.181Z,68.50
2023-03-18T11:48:19.496Z,68.70
2023-03-18T11:51:08.475Z,69.00
2023-03-18T11:53:51.377Z,69.10
2023-03-18T11:56:24.414Z,69.00
2023-03-18T11:59:21.186Z,68.80
2023-03-18T12:01:57.080Z,68.90
2023-03-18T12:04:38.824Z,69.10
2023-03-18T12:07:23.539Z,69.40
2023-03-18T12:10:03.683Z,69.00
2023-03-18T12:12:48.501Z,68.60
2023-03-18T12:15:24.627Z,68.30
2023-03-18T12:18:03.651Z,68.10
2023-03-18T12:20:44.016Z,68.10
2023-03-18T12:23:21.304Z,68.40
2023-03-18T12:26:00.881Z,68.50
2023-03-18T12:28:42.593Z,68.60
2023-03-18T12:31:33.328Z,68.30
2023-03-18T12:34:02.804Z,68.70
2023-03-18T12:36:44.348Z,68.80
2023-03-18T12:39:52.584Z,69.00
2023-03-18T12:42:31.272Z,69.20
2023-03-18T12:45:01.860Z,69.40
2023-03-18T12:47:37.139Z,69.40
2023-03-18T12:50:13.066Z,69.20
2023-03-18T12:52:44.396Z,69.30
2023-03-18T12:55:16.328Z,69.10
2023-03-18T12:57:48.657Z,69.10
2023-03-18T13:00:23.776Z,69.00
2023-03-18T13:03:00.090Z,68.90
2023-03-18T13:05:36.805Z,69.40
2023-03-18T13:08:34.685Z,70.10
2023-03-18T13:11:12.326Z,69.70
2023-03-18T13:13:46.038Z,68.60
2023-03-18T13:16:15.262Z,67.90
2023-03-18T13:18:46.641Z,68.10
2023-03-18T13:21:18.204Z,67.90
2023-03-18T13:24:00.869Z,67.90
2023-03-18T13:26:43.064Z,67.60
2023-03-18T13:29:23.101Z,67.90
2023-03-18T13:32:00.937Z,68.10
2023-03-18T13:34:54.738Z,68.00
2023-03-18T13:37:49.080Z,67.90
2023-03-18T13:40:33.061Z,68.10
2023-03-18T13:43:02.152Z,67.80
2023-03-18T13:45:35.871Z,68.00
2023-03-18T13:48:07.663Z,67.80
2023-03-18T13:50:37.804Z,67.90
2023-03-18T13:53:07.191Z,68.10
2023-03-18T13:55:43.073Z,68.20
2023-03-18T13:58:25.696Z,68.40
2023-03-18T14:01:15.731Z,68.20
2023-03-18T14:04:20.302Z,67.90
2023-03-18T14:06:55.560Z,67.90
2023-03-18T14:09:32.367Z,67.80
2023-03-18T14:12:17.060Z,67.90
2023-03-18T14:15:25.651Z,68.10
2023-03-18T14:17:58.729Z,67.90
2023-03-18T14:20:38.488Z,68.10
2023-03-18T14:23:30.708Z,67.70
2023-03-18T14:26:04.937Z,67.30
2023-03-18T14:28:42.839Z,67.50
2023-03-18T14:31:25.229Z,67.20
2023-03-18T14:34:01.833Z,67.10
2023-03-18T14:36:46.739Z,66.10
2023-03-18T14:39:18.348Z,65.80
2023-03-18T14:41:53.929Z,66.10
2023-03-18T14:44:24.488Z,65.60
2023-03-18T14:46:59.677Z,65.90
2023-03-18T14:49:38.240Z,65.40
2023-03-18T14:52:23.113Z,65.90
2023-03-18T14:54:52.557Z,65.90
2023-03-18T14:57:21.983Z,65.10
2023-03-18T14:59:50.750Z,64.90
2023-03-18T15:02:30.398Z,65.60
2023-03-18T15:05:11.082Z,65.90
2023-03-18T15:07:46.825Z,65.90
2023-03-18T15:10:20.000Z,65.90
2023-03-18T15:13:07.737Z,66.10
2023-03-18T15:15:35.114Z,66.20
2023-03-18T15:18:16.884Z,66.30
2023-03-18T15:20:47.347Z,66.40
2023-03-18T15:23:15.291Z,66.60
2023-03-18T15:25:46.903Z,66.30
2023-03-18T15:28:19.355Z,66.50
2023-03-18T15:30:54.783Z,66.30
2023-03-18T15:33:30.377Z,66.00
2023-03-18T15:36:06.298Z,65.90
2023-03-18T15:39:16.656Z,65.60
2023-03-18T15:41:43.612Z,65.90
2023-03-18T15:44:27.990Z,65.40
2023-03-18T15:46:56.365Z,66.00
2023-03-18T15:49:27.844Z,65.50
2023-03-18T15:52:01.546Z,65.70
2023-03-18T15:55:05.242Z,65.60
2023-03-18T15:57:35.871Z,65.80
2023-03-18T16:00:19.197Z,65.60
2023-03-18T16:02:46.513Z,65.50
2023-03-18T16:05:34.945Z,65.60
2023-03-18T16:08:03.566Z,65.50
2023-03-18T16:10:42.740Z,65.50
2023-03-18T16:13:15.754Z,65.60
2023-03-18T16:15:46.031Z,65.40
2023-03-18T16:18:13.198Z,65.30
2023-03-18T16:20:42.237Z,65.20
2023-03-18T16:23:10.563Z,65.40
2023-03-18T16:25:37.528Z,65.30
2023-03-18T16:28:04.847Z,65.30
2023-03-18T16:30:33.563Z,65.40
2023-03-18T16:33:00.883Z,65.50
2023-03-18T16:35:32.654Z,65.60
2023-03-18T16:38:00.643Z,65.90
2023-03-18T16:40:31.302Z,66.10
2023-03-18T16:42:58.739Z,66.20
2023-03-18T16:45:30.395Z,66.20
2023-03-18T16:48:01.657Z,66.30
2023-03-18T16:50:31.699Z,66.30
2023-03-18T16:52:58.740Z,66.50
2023-03-18T16:55:26.638Z,66.50
2023-03-18T16:57:59.792Z,66.50
2023-03-18T17:00:34.802Z,66.80
2023-03-18T17:03:11.459Z,66.80
2023-03-18T17:05:38.563Z,66.90
2023-03-18T17:08:05.502Z,66.90
2023-03-18T17:10:33.806Z,67.00
2023-03-18T17:13:05.836Z,67.20
2023-03-18T17:15:36.807Z,67.30
2023-03-18T17:18:04.650Z,67.20
2023-03-18T17:20:34.777Z,67.40
2023-03-18T17:23:04.035Z,67.20
2023-03-18T17:25:32.327Z,67.40
2023-03-18T17:28:03.321Z,67.60
2023-03-18T17:30:34.151Z,67.60
2023-03-18T17:33:01.479Z,67.60
2023-03-18T17:35:29.561Z,67.90
2023-03-18T17:37:57.156Z,68.10
2023-03-18T17:40:28.573Z,67.80
2023-03-18T17:42:55.997Z,67.90
2023-03-18T17:45:28.156Z,67.80
2023-03-18T17:48:01.255Z,67.90
2023-03-18T17:50:31.314Z,68.00
2023-03-18T17:52:58.659Z,67.80
2023-03-18T17:55:27.600Z,68.00
2023-03-18T17:57:54.447Z,68.10
2023-03-18T18:00:24.764Z,68.00
2023-03-18T18:02:54.839Z,68.00
2023-03-18T18:05:23.061Z,68.20
2023-03-18T18:07:51.480Z,68.00
2023-03-18T18:10:20.515Z,68.10
2023-03-18T18:12:49.782Z,68.00
2023-03-18T18:15:19.923Z,68.00
2023-03-18T18:17:48.571Z,67.90
2023-03-18T18:20:18.983Z,67.90
2023-03-18T18:22:48.364Z,67.90
2023-03-18T18:25:18.138Z,67.90
2023-03-18T18:27:46.429Z,67.80
2023-03-18T18:30:17.749Z,67.70
2023-03-18T18:32:45.722Z,67.70
2023-03-18T18:35:16.146Z,67.70
2023-03-18T18:37:51.811Z,67.70
2023-03-18T18:40:19.972Z,67.70
2023-03-18T18:42:47.919Z,67.70
2023-03-18T18:45:19.055Z,67.60
2023-03-18T18:47:46.450Z,67.60
2023-03-18T18:50:19.804Z,67.50
2023-03-18T18:52:48.613Z,67.50
2023-03-18T18:55:15.759Z,67.40
2023-03-18T18:57:42.937Z,67.40
2023-03-18T19:00:20.713Z,67.40
2023-03-18T19:02:57.214Z,67.50
2023-03-18T19:05:24.965Z,67.60
2023-03-18T19:07:53.584Z,67.60
2023-03-18T19:10:22.748Z,67.70
2023-03-18T19:12:49.986Z,67.80
2023-03-18T19:15:17.225Z,67.80
2023-03-18T19:17:45.190Z,67.80
2023-03-18T19:20:26.372Z,67.80
2023-03-18T19:22:56.769Z,67.80
2023-03-18T19:25:25.713Z,67.70
2023-03-18T19:27:53.680Z,67.80
2023-03-18T19:30:24.961Z,67.70
2023-03-18T19:32:52.276Z,67.90
2023-03-18T19:35:19.428Z,68.20
2023-03-18T19:37:48.135Z,69.00
2023-03-18T19:40:26.410Z,69.40
2023-03-18T19:42:53.563Z,69.80
2023-03-18T19:45:20.791Z,69.90
2023-03-18T19:47:47.839Z,70.30
2023-03-18T19:50:16.367Z,70.60
2023-03-18T19:52:43.474Z,71.20
2023-03-18T19:55:15.400Z,71.50
2023-03-18T19:57:46.899Z,71.60
2023-03-18T20:00:22.551Z,72.10
2023-03-18T20:02:53.591Z,71.70
2023-03-18T20:05:22.861Z,73.10
2023-03-18T20:07:50.629Z,73.30
2023-03-18T20:10:19.689Z,74.30
2023-03-18T20:12:49.425Z,73.80
2023-03-18T20:15:20.070Z,74.10
2023-03-18T20:17:48.088Z,74.60
2023-03-18T20:20:18.222Z,75.20
2023-03-18T20:22:54.772Z,75.70
2023-03-18T20:25:26.457Z,76.20
2023-03-18T20:28:24.774Z,76.50
2023-03-18T20:30:54.037Z,77.00
2023-03-18T20:33:26.397Z,77.60
2023-03-18T20:35:54.468Z,76.90
2023-03-18T20:41:17.511Z,77.80
2023-03-18T20:43:50.790Z,77.40
2023-03-18T20:46:18.490Z,77.60
2023-03-18T20:48:45.906Z,78.20
2023-03-18T20:51:20.444Z,78.30
2023-03-18T20:53:48.769Z,78.90
2023-03-18T20:56:16.465Z,78.70
2023-03-18T20:58:47.977Z,79.30
2023-03-18T21:01:15.451Z,78.90
2023-03-18T21:03:42.350Z,79.40
2023-03-18T21:06:12.753Z,78.70
2023-03-18T21:08:39.972Z,78.80
2023-03-18T21:11:20.513Z,79.00
2023-03-18T21:13:52.039Z,78.80
2023-03-18T21:16:20.069Z,79.00
2023-03-18T21:18:47.693Z,78.80
2023-03-18T21:21:20.834Z,78.80
2023-03-18T21:23:48.401Z,78.90
2023-03-18T21:26:15.660Z,78.60
2023-03-18T21:28:42.546Z,78.90
2023-03-18T21:31:23.544Z,78.90
2023-03-18T21:33:55.602Z,78.90
2023-03-18T21:36:23.077Z,78.90
2023-03-18T21:38:50.010Z,78.90
2023-03-18T21:41:29.926Z,78.90
2023-03-18T21:43:57.336Z,79.30
2023-03-18T21:46:27.616Z,79.40
2023-03-18T21:48:56.690Z,79.50
2023-03-18T21:51:38.447Z,79.60
2023-03-18T21:54:06.691Z,79.70
2023-03-18T21:56:33.682Z,79.50
2023-03-18T21:59:00.650Z,79.50
2023-03-18T22:01:32.263Z,79.50
2023-03-18T22:03:59.739Z,79.30
2023-03-18T22:06:26.852Z,79.50
2023-03-18T22:08:53.664Z,79.40
2023-03-18T22:11:24.276Z,79.50
2023-03-18T22:13:51.496Z,79.50
2023-03-18T22:16:18.969Z,79.40
2023-03-18T22:18:47.476Z,79.50
2023-03-18T22:21:18.104Z,79.70
2023-03-18T22:23:45.131Z,79.50
2023-03-18T22:26:14.841Z,79.50
2023-03-18T22:28:42.300Z,79.40
2023-03-18T22:31:17.525Z,79.70
2023-03-18T22:33:44.734Z,79.60
2023-03-18T22:36:14.314Z,79.80
2023-03-18T22:38:41.722Z,79.90
2023-03-18T22:41:18.139Z,80.20
2023-03-18T22:43:45.891Z,80.40
2023-03-18T22:46:12.838Z,80.70
2023-03-18T22:48:39.853Z,80.60
2023-03-18T22:51:07.207Z,80.70
2023-03-18T22:53:37.601Z,80.70
2023-03-18T22:56:10.556Z,80.90
2023-03-18T22:58:38.139Z,80.80
2023-03-18T23:01:05.640Z,80.90
2023-03-18T23:03:34.331Z,81.10
2023-03-18T23:06:02.966Z,81.40
2023-03-18T23:08:29.946Z,81.00
2023-03-18T23:11:01.113Z,81.40
2023-03-18T23:13:32.933Z,81.20
2023-03-18T23:16:04.201Z,81.10
2023-03-18T23:18:31.609Z,80.70
2023-03-18T23:21:01.320Z,80.80
2023-03-18T23:23:31.937Z,80.70
2023-03-18T23:26:00.430Z,80.70
2023-03-18T23:28:27.528Z,80.90
2023-03-18T23:30:54.982Z,80.80
2023-03-18T23:33:21.860Z,80.90
2023-03-18T23:35:49.036Z,81.30
2023-03-18T23:38:16.102Z,81.10
2023-03-18T23:40:43.377Z,81.20
2023-03-18T23:43:12.190Z,81.30
2023-03-18T23:45:39.737Z,81.10
2023-03-18T23:48:07.477Z,81.10
2023-03-18T23:50:34.633Z,81.40
2023-03-18T23:53:02.074Z,81.50
2023-03-18T23:55:36.141Z,81.20
2023-03-18T23:58:03.496Z,81.40
